Time;durP1;ratioP1;P1;durP2;ratioP2;P2;SDS_P1;SDS_P2;PMS_P1;PMS_P2;Temp;Humidity;BMP_temperature;BMP_pressure;BME280_temperature;BME280_humidity;BME280_pressure;Samples;Min_cycle;Max_cycle;Signal;HPM_P1;HPM_P2
2023/01/12 00:01:25;;;;;;;5.15;1.00;;;;;14.70;100673.00;;;;5059810;28;20233;-77
2023/01/12 00:03:53;;;;;;;4.57;0.63;;;;;14.70;100680.00;;;;5052751;28;20208;-77
2023/01/12 00:06:22;;;;;;;5.78;1.40;;;;;14.70;100672.00;;;;5049234;28;20231;-77
2023/01/12 00:08:51;;;;;;;3.42;1.05;;;;;14.80;100676.00;;;;5066550;28;20199;-77
2023/01/12 00:11:19;;;;;;;6.05;0.95;;;;;14.80;100665.00;;;;5048289;28;20203;-77
2023/01/12 00:13:46;;;;;;;9.40;2.10;;;;;14.80;100654.00;;;;5050723;28;20415;-77
2023/01/12 00:16:36;;;;;;;5.25;1.30;;;;;14.80;100648.00;;;;5048851;28;20192;-77
2023/01/12 00:19:09;;;;;;;3.90;1.00;;;;;14.80;100653.00;;;;5049798;28;20195;-77
2023/01/12 00:21:50;;;;;;;5.15;1.13;;;;;14.80;100644.00;;;;5065256;28;20195;-77
2023/01/12 00:24:21;;;;;;;5.90;1.77;;;;;14.80;100640.00;;;;5048507;28;20740;-77
2023/01/12 00:26:49;;;;;;;8.82;2.33;;;;;14.80;100638.00;;;;5048442;28;20259;-77
2023/01/12 00:29:17;;;;;;;4.93;1.10;;;;;14.80;100631.00;;;;5050355;28;20203;-77
2023/01/12 00:31:44;;;;;;;5.00;1.17;;;;;14.80;100630.00;;;;5049921;28;20662;-77
2023/01/12 00:34:12;;;;;;;6.10;1.05;;;;;14.80;100633.00;;;;5049443;28;20211;-77
2023/01/12 00:36:41;;;;;;;6.60;1.60;;;;;14.80;100628.00;;;;5050781;28;20525;-77
2023/01/12 00:39:08;;;;;;;8.63;1.58;;;;;14.80;100628.00;;;;5061330;28;20206;-77
2023/01/12 00:47:07;;;;;;;7.78;1.52;;;;;14.80;100611.00;;;;5049087;28;20278;-77
2023/01/12 00:49:34;;;;;;;12.55;1.58;;;;;14.80;100620.00;;;;5045767;28;20871;-77
2023/01/12 00:52:04;;;;;;;5.63;1.45;;;;;14.80;100606.00;;;;5045308;28;20200;-77
2023/01/12 00:54:32;;;;;;;7.63;1.83;;;;;14.90;100611.00;;;;5047943;28;20195;-77
2023/01/12 00:56:59;;;;;;;9.38;1.80;;;;;14.90;100599.00;;;;5059877;28;20199;-78
2023/01/12 00:59:27;;;;;;;9.27;2.53;;;;;14.90;100590.00;;;;5053228;28;20199;-77
2023/01/12 01:01:54;;;;;;;8.40;2.03;;;;;14.90;100601.00;;;;5057955;28;20196;-77
2023/01/12 01:04:22;;;;;;;8.32;1.40;;;;;14.90;100592.00;;;;5050984;28;20624;-77
2023/01/12 01:06:49;;;;;;;5.90;1.35;;;;;14.90;100596.00;;;;5054589;28;20700;-77
2023/01/12 01:09:18;;;;;;;8.90;1.60;;;;;14.90;100591.00;;;;5049420;28;20195;-77
2023/01/12 01:11:45;;;;;;;9.23;2.25;;;;;14.90;100592.00;;;;5050624;28;20208;-78
2023/01/12 01:14:12;;;;;;;5.75;1.67;;;;;14.90;100593.00;;;;5064903;28;20665;-77
2023/01/12 01:16:39;;;;;;;9.98;2.67;;;;;14.90;100579.00;;;;5049012;28;20195;-78
2023/01/12 01:19:07;;;;;;;5.53;2.05;;;;;14.90;100571.00;;;;5052366;28;20207;-77
2023/01/12 01:21:34;;;;;;;7.57;2.08;;;;;14.90;100571.00;;;;5052689;28;20199;-77
2023/01/12 01:24:02;;;;;;;5.47;2.00;;;;;14.90;100566.00;;;;5070153;28;20205;-78
2023/01/12 01:26:30;;;;;;;7.78;2.03;;;;;14.90;100570.00;;;;5067616;28;20623;-78
2023/01/12 01:28:58;;;;;;;7.47;2.10;;;;;14.90;100563.00;;;;5064449;28;20211;-79
2023/01/12 01:31:26;;;;;;;7.68;1.73;;;;;14.90;100544.00;;;;5054626;28;20226;-79
2023/01/12 01:33:53;;;;;;;8.57;2.05;;;;;14.90;100551.00;;;;5052911;28;20195;-79
2023/01/12 01:36:21;;;;;;;7.80;1.73;;;;;14.90;100539.00;;;;5058473;28;20216;-79
2023/01/12 01:38:49;;;;;;;6.18;1.92;;;;;14.90;100537.00;;;;5066280;28;20199;-79
2023/01/12 01:41:20;;;;;;;5.85;1.92;;;;;14.90;100535.00;;;;5057811;28;20260;-78
2023/01/12 01:43:55;;;;;;;8.82;2.85;;;;;14.90;100522.00;;;;5062057;28;20222;-79
2023/01/12 01:46:31;;;;;;;6.70;1.92;;;;;14.90;100528.00;;;;5058089;28;20231;-79
2023/01/12 01:49:02;;;;;;;10.07;2.42;;;;;14.90;100529.00;;;;5051968;28;20199;-79
2023/01/12 01:51:30;;;;;;;8.45;2.00;;;;;14.90;100527.00;;;;5049191;28;20211;-79
2023/01/12 01:53:58;;;;;;;9.15;2.60;;;;;14.90;100527.00;;;;5064122;28;20204;-80
2023/01/12 01:56:30;;;;;;;7.47;1.70;;;;;14.90;100521.00;;;;5067765;28;20206;-79
2023/01/12 01:59:02;;;;;;;4.85;1.55;;;;;14.90;100520.00;;;;5051415;28;20196;-79
2023/01/12 02:01:29;;;;;;;8.85;1.95;;;;;14.90;100511.00;;;;5056044;28;20200;-80
2023/01/12 02:03:57;;;;;;;5.55;1.63;;;;;14.90;100512.00;;;;5059407;28;20952;-80
2023/01/12 02:06:26;;;;;;;4.90;1.50;;;;;14.90;100518.00;;;;5069742;28;20204;-80
2023/01/12 02:08:57;;;;;;;5.50;1.50;;;;;14.90;100506.00;;;;5070365;28;20199;-80
2023/01/12 02:17:09;;;;;;;4.25;1.13;;;;;14.80;100511.00;;;;5065737;28;20272;-79
2023/01/12 02:20:03;;;;;;;5.72;1.30;;;;;14.80;100502.00;;;;5056693;28;20585;-79
2023/01/12 02:23:09;;;;;;;4.45;0.77;;;;;14.80;100483.00;;;;5055415;28;20190;-79
2023/01/12 02:26:11;;;;;;;5.13;1.38;;;;;14.80;100481.00;;;;5066758;28;20187;-79
2023/01/12 02:29:12;;;;;;;2.38;0.50;;;;;14.70;100479.00;;;;5060804;28;20203;-79
2023/01/12 02:31:45;;;;;;;3.17;0.73;;;;;14.80;100473.00;;;;5069117;28;20206;-79
2023/01/12 02:34:26;;;;;;;4.05;0.90;;;;;14.80;100461.00;;;;5049159;28;20207;-79
2023/01/12 02:36:59;;;;;;;3.50;0.60;;;;;14.80;100458.00;;;;5049774;28;20682;-79
2023/01/12 02:39:31;;;;;;;7.10;1.05;;;;;14.80;100453.00;;;;5049758;28;20203;-80
2023/01/12 02:44:55;;;;;;;3.05;0.70;;;;;14.80;100446.00;;;;5049151;28;20219;-79
2023/01/12 02:47:32;;;;;;;1.98;0.60;;;;;14.70;100440.00;;;;5049400;28;20764;-79
2023/01/12 02:50:01;;;;;;;1.83;0.50;;;;;14.80;100433.00;;;;5049907;28;20199;-79
2023/01/12 02:52:33;;;;;;;2.88;0.60;;;;;14.80;100423.00;;;;5050166;28;20203;-79
2023/01/12 02:55:01;;;;;;;1.30;0.63;;;;;14.80;100428.00;;;;5050400;28;20662;-79
2023/01/12 02:57:31;;;;;;;1.25;0.50;;;;;14.80;100428.00;;;;5054010;28;20195;-80
2023/01/12 03:00:01;;;;;;;3.67;0.93;;;;;14.80;100426.00;;;;5052723;28;20203;-80
2023/01/12 03:02:30;;;;;;;2.45;0.63;;;;;14.80;100413.00;;;;5063416;28;20201;-79
2023/01/12 03:04:58;;;;;;;1.45;0.43;;;;;14.80;100406.00;;;;5052866;28;20204;-80
2023/01/12 03:07:41;;;;;;;3.65;0.70;;;;;14.70;100413.00;;;;5060939;28;20222;-80
2023/01/12 03:10:34;;;;;;;2.88;0.65;;;;;14.70;100401.00;;;;5062473;28;20198;-80
2023/01/12 03:13:06;;;;;;;4.07;1.05;;;;;14.80;100388.00;;;;5048984;28;20204;-80
2023/01/12 03:15:35;;;;;;;3.28;0.93;;;;;14.80;100385.00;;;;5058011;28;20223;-79
2023/01/12 03:18:09;;;;;;;2.40;0.90;;;;;14.70;100386.00;;;;5049876;28;20211;-80
2023/01/12 03:20:41;;;;;;;4.78;1.20;;;;;14.80;100385.00;;;;5054259;28;20202;-80
2023/01/12 03:23:13;;;;;;;2.78;1.13;;;;;14.70;100379.00;;;;5060727;28;20661;-80
2023/01/12 03:25:44;;;;;;;4.05;1.73;;;;;14.80;100378.00;;;;5054227;28;20203;-80
2023/01/12 03:28:14;;;;;;;4.95;1.40;;;;;14.70;100382.00;;;;5057650;28;20689;-80
2023/01/12 03:30:46;;;;;;;2.75;1.05;;;;;14.70;100366.00;;;;5053865;28;20199;-80
2023/01/12 03:33:14;;;;;;;6.45;1.40;;;;;14.70;100364.00;;;;5068463;28;20577;-79
2023/01/12 03:35:50;;;;;;;3.80;1.23;;;;;14.70;100341.00;;;;5068937;28;20219;-79
2023/01/12 03:38:24;;;;;;;2.33;1.13;;;;;14.70;100340.00;;;;5065215;28;20203;-80
2023/01/12 03:40:58;;;;;;;2.58;0.93;;;;;14.70;100346.00;;;;5050034;28;20203;-80
2023/01/12 03:43:31;;;;;;;4.70;1.45;;;;;14.70;100321.00;;;;5066097;28;20209;-80
2023/01/12 03:46:02;;;;;;;4.30;0.90;;;;;14.70;100325.00;;;;5064213;28;20239;-79
2023/01/12 03:48:37;;;;;;;3.60;1.45;;;;;14.60;100310.00;;;;5049321;28;20236;-80
2023/01/12 03:51:10;;;;;;;2.35;0.77;;;;;14.60;100297.00;;;;5070017;28;20210;-79
2023/01/12 03:53:40;;;;;;;2.47;0.93;;;;;14.60;100283.00;;;;5065498;28;20575;-80
2023/01/12 03:56:10;;;;;;;2.97;0.73;;;;;14.60;100278.00;;;;5053295;28;20206;-80
2023/01/12 03:58:38;;;;;;;3.50;1.05;;;;;14.60;100274.00;;;;5061872;28;20210;-79
2023/01/12 04:01:06;;;;;;;6.90;1.42;;;;;14.60;100250.00;;;;5057777;28;20214;-79
2023/01/12 04:03:34;;;;;;;2.25;0.70;;;;;14.60;100207.00;;;;5050262;28;20214;-80
2023/01/12 04:06:01;;;;;;;2.08;0.70;;;;;14.60;100207.00;;;;5057012;28;20195;-79
2023/01/12 04:08:29;;;;;;;3.72;0.57;;;;;14.60;100203.00;;;;5055143;28;20222;-79
2023/01/12 04:10:56;;;;;;;2.33;0.80;;;;;14.60;100179.00;;;;5052722;28;20186;-79
2023/01/12 04:13:22;;;;;;;2.90;0.80;;;;;14.60;100190.00;;;;5060209;28;20211;-79
2023/01/12 04:15:50;;;;;;;2.67;0.63;;;;;14.60;100161.00;;;;5048772;28;20199;-80
2023/01/12 04:18:17;;;;;;;2.95;0.73;;;;;14.60;100169.00;;;;5068037;28;20202;-80
2023/01/12 04:20:47;;;;;;;2.55;0.60;;;;;14.50;100147.00;;;;5049817;28;20222;-80
2023/01/12 04:23:13;;;;;;;2.63;1.10;;;;;14.60;100134.00;;;;5050924;28;20200;-80
2023/01/12 04:25:41;;;;;;;4.32;0.93;;;;;14.50;100130.00;;;;5048246;28;20661;-79
2023/01/12 04:28:08;;;;;;;4.55;0.90;;;;;14.50;100145.00;;;;5065287;28;20226;-79
2023/01/12 04:30:35;;;;;;;3.17;0.65;;;;;14.50;100142.00;;;;5056018;28;20191;-80
2023/01/12 04:33:08;;;;;;;3.58;0.80;;;;;14.50;100128.00;;;;5067982;28;20226;-79
2023/01/12 04:35:35;;;;;;;2.72;0.60;;;;;14.50;100111.00;;;;5067803;28;20280;-79
2023/01/12 04:38:07;;;;;;;3.63;0.65;;;;;14.40;100101.00;;;;5065045;28;20203;-80
2023/01/12 04:40:35;;;;;;;1.25;0.50;;;;;14.50;100116.00;;;;5051007;28;20199;-80
2023/01/12 04:43:03;;;;;;;2.22;0.70;;;;;14.50;100110.00;;;;5064647;28;20198;-80
2023/01/12 04:45:32;;;;;;;4.50;0.90;;;;;14.40;100111.00;;;;5048601;28;20693;-80
2023/01/12 04:48:02;;;;;;;3.97;0.60;;;;;14.40;100078.00;;;;5048328;28;20262;-78
2023/01/12 04:50:30;;;;;;;1.95;0.57;;;;;14.40;100106.00;;;;5061056;28;20195;-80
2023/01/12 04:52:58;;;;;;;2.42;0.82;;;;;14.40;100098.00;;;;5065160;28;20206;-80
2023/01/12 04:55:26;;;;;;;2.92;0.70;;;;;14.40;100128.00;;;;5054063;28;20212;-79
2023/01/12 04:57:54;;;;;;;5.65;0.93;;;;;14.40;100111.00;;;;5048632;28;20214;-79
2023/01/12 05:00:21;;;;;;;8.48;1.20;;;;;14.50;100126.00;;;;5047183;28;20214;-80
2023/01/12 05:02:49;;;;;;;2.10;0.50;;;;;14.40;100124.00;;;;5048756;28;20215;-80
2023/01/12 05:05:16;;;;;;;4.78;0.70;;;;;14.50;100115.00;;;;5047850;28;20203;-80
2023/01/12 05:10:26;;;;;;;3.95;0.93;;;;;14.50;100106.00;;;;5046553;28;20259;-79
2023/01/12 05:12:53;;;;;;;4.80;1.05;;;;;14.50;100099.00;;;;5052925;28;20222;-80
2023/01/12 05:15:20;;;;;;;4.35;1.10;;;;;14.50;100050.00;;;;5054789;28;20199;-79
2023/01/12 05:17:47;;;;;;;2.42;0.70;;;;;14.50;100037.00;;;;5053984;28;20215;-80
2023/01/12 05:20:15;;;;;;;6.18;0.95;;;;;14.50;100070.00;;;;5051888;28;20677;-79
2023/01/12 05:22:42;;;;;;;1.83;0.50;;;;;14.50;100087.00;;;;5046975;28;20195;-80
2023/01/12 05:25:10;;;;;;;2.47;0.80;;;;;14.50;100083.00;;;;5048302;28;20570;-79
2023/01/12 05:27:38;;;;;;;3.13;0.80;;;;;14.50;100075.00;;;;5059553;28;20219;-79
2023/01/12 05:30:06;;;;;;;3.60;1.08;;;;;14.50;100065.00;;;;5060835;28;20198;-79
2023/01/12 05:32:37;;;;;;;2.28;0.82;;;;;14.50;100060.00;;;;5058975;28;20192;-79
2023/01/12 05:35:06;;;;;;;1.50;0.50;;;;;14.50;100075.00;;;;5048357;28;20254;-80
2023/01/12 05:37:33;;;;;;;2.70;0.68;;;;;14.60;100068.00;;;;5059596;28;20205;-79
2023/01/12 05:40:01;;;;;;;4.18;0.73;;;;;14.60;100065.00;;;;5068489;28;20203;-79
2023/01/12 05:45:14;;;;;;;1.73;0.47;;;;;14.60;100058.00;;;;5053017;28;20233;-79
2023/01/12 05:47:42;;;;;;;0.93;0.40;;;;;14.60;100049.00;;;;5062951;28;20226;-80
2023/01/12 05:50:10;;;;;;;2.38;0.60;;;;;14.60;100049.00;;;;5059680;28;20669;-79
2023/01/12 05:52:37;;;;;;;1.48;0.43;;;;;14.60;100075.00;;;;5057970;28;20222;-79
2023/01/12 05:55:05;;;;;;;1.40;0.43;;;;;14.60;100052.00;;;;5052088;28;20199;-80
2023/01/12 05:57:33;;;;;;;1.23;0.30;;;;;14.60;100053.00;;;;5066807;28;20195;-79
2023/01/12 06:00:01;;;;;;;1.15;0.38;;;;;14.60;100043.00;;;;5048758;28;20195;-80
2023/01/12 06:02:30;;;;;;;0.70;0.35;;;;;14.60;100052.00;;;;5051459;28;20211;-79
2023/01/12 06:04:57;;;;;;;1.50;0.38;;;;;14.70;100062.00;;;;5053901;28;20196;-80
2023/01/12 06:07:24;;;;;;;1.83;0.55;;;;;14.70;100055.00;;;;5048821;28;20231;-78
2023/01/12 06:09:52;;;;;;;2.38;0.50;;;;;14.70;100063.00;;;;5050098;28;20215;-79
2023/01/12 06:15:04;;;;;;;1.25;0.45;;;;;14.70;100069.00;;;;5054937;28;20202;-80
2023/01/12 06:17:34;;;;;;;2.50;0.25;;;;;14.70;100069.00;;;;5054377;28;20803;-79
2023/01/12 06:20:01;;;;;;;1.08;0.50;;;;;14.70;100070.00;;;;5065843;28;20210;-79
2023/01/12 06:22:28;;;;;;;0.80;0.32;;;;;14.70;100075.00;;;;5055409;28;20207;-80
2023/01/12 06:24:55;;;;;;;0.80;0.38;;;;;14.80;100077.00;;;;5051273;28;20196;-79
2023/01/12 06:27:23;;;;;;;0.82;0.40;;;;;14.80;100056.00;;;;5061779;28;20200;-81
2023/01/12 06:29:50;;;;;;;0.47;0.20;;;;;14.80;100068.00;;;;5059519;28;20227;-80
2023/01/12 06:32:17;;;;;;;1.52;0.35;;;;;14.80;100059.00;;;;5051141;28;20207;-79
2023/01/12 06:34:46;;;;;;;1.10;0.40;;;;;14.80;100064.00;;;;5063382;28;20199;-79
2023/01/12 06:37:13;;;;;;;0.70;0.30;;;;;14.80;100088.00;;;;5058107;28;20191;-78
2023/01/12 06:39:40;;;;;;;2.30;0.32;;;;;14.90;100074.00;;;;5057263;28;20203;-80
2023/01/12 06:44:52;;;;;;;1.92;0.50;;;;;14.90;100087.00;;;;5058683;28;20201;-80
2023/01/12 06:47:20;;;;;;;2.95;0.30;;;;;14.80;100073.00;;;;5068403;28;20206;-83
2023/01/12 06:49:50;;;;;;;0.65;0.43;;;;;14.90;100079.00;;;;5054997;28;20223;-83
2023/01/12 06:52:19;;;;;;;0.40;0.20;;;;;14.90;100079.00;;;;5054992;28;20700;-82
2023/01/12 06:54:47;;;;;;;0.40;0.20;;;;;14.90;100096.00;;;;5058487;28;20198;-81
2023/01/12 06:57:14;;;;;;;0.43;0.10;;;;;15.00;100079.00;;;;5067836;28;20199;-82
2023/01/12 06:59:42;;;;;;;0.35;0.20;;;;;15.00;100091.00;;;;5054548;28;20242;-82
2023/01/12 07:02:12;;;;;;;0.88;0.30;;;;;15.00;100086.00;;;;5066857;28;20207;-81
2023/01/12 07:04:40;;;;;;;0.40;0.30;;;;;15.00;100089.00;;;;5055259;28;20269;-79
2023/01/12 07:07:10;;;;;;;2.35;0.25;;;;;15.00;100085.00;;;;5056766;28;20206;-81
2023/01/12 07:09:37;;;;;;;0.70;0.20;;;;;15.10;100093.00;;;;5055883;28;20226;-80
2023/01/12 07:12:05;;;;;;;1.23;0.50;;;;;15.10;100101.00;;;;5067846;28;20210;-80
2023/01/12 07:14:32;;;;;;;2.10;0.22;;;;;15.10;100111.00;;;;5069423;28;20213;-80
2023/01/12 07:17:00;;;;;;;1.75;0.30;;;;;15.10;100100.00;;;;5069533;28;20711;-81
2023/01/12 07:19:27;;;;;;;0.30;0.20;;;;;15.10;100107.00;;;;5059967;28;20199;-80
2023/01/12 07:21:54;;;;;;;0.77;0.30;;;;;15.10;100106.00;;;;5061083;28;20199;-79
2023/01/12 07:24:23;;;;;;;0.90;0.10;;;;;15.10;100115.00;;;;5049771;28;20196;-80
2023/01/12 07:26:51;;;;;;;2.50;0.43;;;;;15.20;100114.00;;;;5052811;28;20202;-80
2023/01/12 07:29:18;;;;;;;0.50;0.20;;;;;15.20;100119.00;;;;5064212;28;20215;-79
2023/01/12 07:31:47;;;;;;;1.02;0.30;;;;;15.20;100131.00;;;;5049244;28;20199;-79
2023/01/12 07:34:15;;;;;;;1.02;0.25;;;;;15.20;100119.00;;;;5049661;28;20200;-79
2023/01/12 07:36:42;;;;;;;1.27;0.40;;;;;15.30;100117.00;;;;5049570;28;20212;-80
2023/01/12 07:39:11;;;;;;;0.85;0.30;;;;;15.30;100111.00;;;;5064457;28;20194;-80
2023/01/12 07:44:25;;;;;;;1.30;0.40;;;;;15.30;100125.00;;;;5055767;28;20218;-81
2023/01/12 07:46:52;;;;;;;0.50;0.20;;;;;15.30;100120.00;;;;5053596;28;20235;-82
2023/01/12 07:49:19;;;;;;;0.82;0.20;;;;;15.30;100125.00;;;;5065660;28;20693;-81
2023/01/12 07:51:47;;;;;;;0.70;0.20;;;;;15.40;100131.00;;;;5058173;28;20199;-82
2023/01/12 07:54:14;;;;;;;0.77;0.50;;;;;15.40;100127.00;;;;5049625;28;20196;-81
2023/01/12 07:56:43;;;;;;;0.75;0.20;;;;;15.40;100139.00;;;;5048081;28;20199;-80
2023/01/12 07:59:11;;;;;;;1.00;0.30;;;;;15.40;100132.00;;;;5062864;28;20210;-78
2023/01/12 08:01:38;;;;;;;0.73;0.30;;;;;15.50;100135.00;;;;5056429;28;20200;-77
2023/01/12 08:04:06;;;;;;;1.10;0.38;;;;;15.50;100142.00;;;;5059381;28;20226;-78
2023/01/12 08:06:34;;;;;;;2.33;0.40;;;;;15.50;100143.00;;;;5057845;28;20206;-81
2023/01/12 08:09:01;;;;;;;2.92;0.40;;;;;15.50;100140.00;;;;5062390;28;20222;-80
2023/01/12 08:11:29;;;;;;;0.65;0.32;;;;;15.50;100136.00;;;;5052648;28;20201;-80
2023/01/12 08:13:58;;;;;;;1.95;0.52;;;;;15.50;100148.00;;;;5056970;28;20207;-79
2023/01/12 08:16:29;;;;;;;1.52;0.40;;;;;15.50;100155.00;;;;5054197;28;20209;-81
2023/01/12 08:19:01;;;;;;;2.90;0.52;;;;;15.60;100165.00;;;;5056566;28;20191;-78
2023/01/12 08:21:34;;;;;;;0.75;0.32;;;;;15.60;100176.00;;;;5062838;28;20932;-81
2023/01/12 08:24:04;;;;;;;1.50;0.30;;;;;15.60;100163.00;;;;5052700;28;20751;-81
2023/01/12 08:26:36;;;;;;;3.05;0.50;;;;;15.60;100175.00;;;;5052964;28;20191;-81
2023/01/12 08:29:10;;;;;;;1.80;0.60;;;;;15.60;100171.00;;;;5049907;28;20254;-79
2023/01/12 08:31:38;;;;;;;1.30;0.50;;;;;15.70;100172.00;;;;5047995;28;20664;-77
2023/01/12 08:34:07;;;;;;;1.65;0.50;;;;;15.70;100170.00;;;;5050974;28;20207;-76
2023/01/12 08:36:35;;;;;;;0.63;0.60;;;;;15.70;100175.00;;;;5050702;28;20236;-78
2023/01/12 08:39:03;;;;;;;0.80;0.32;;;;;15.80;100183.00;;;;5063399;28;20211;-78
2023/01/12 08:41:36;;;;;;;1.83;0.40;;;;;15.80;100192.00;;;;5057410;28;20191;-78
2023/01/12 08:44:08;;;;;;;0.55;0.38;;;;;15.80;100196.00;;;;5052784;28;20661;-78
2023/01/12 08:46:37;;;;;;;0.88;0.40;;;;;15.80;100191.00;;;;5062511;28;20246;-78
2023/01/12 08:49:10;;;;;;;1.45;0.30;;;;;15.80;100197.00;;;;5051877;28;20219;-78
2023/01/12 08:51:38;;;;;;;0.80;0.43;;;;;15.90;100188.00;;;;5061906;28;20680;-77
2023/01/12 08:54:06;;;;;;;1.42;0.35;;;;;15.90;100192.00;;;;5053504;28;20203;-77
2023/01/12 08:56:33;;;;;;;2.92;0.60;;;;;15.90;100192.00;;;;5056128;28;20206;-77
2023/01/12 08:59:01;;;;;;;0.70;0.40;;;;;16.00;100195.00;;;;5061019;28;20199;-80
2023/01/12 09:01:30;;;;;;;2.45;0.65;;;;;16.00;100189.00;;;;5053299;28;20202;-79
2023/01/12 09:03:57;;;;;;;0.70;0.38;;;;;16.00;100205.00;;;;5058529;28;20198;-80
2023/01/12 09:06:27;;;;;;;1.77;0.50;;;;;16.00;100207.00;;;;5061701;28;20908;-80
2023/01/12 09:08:55;;;;;;;3.13;0.50;;;;;16.00;100205.00;;;;5047523;28;20238;-81
2023/01/12 09:11:23;;;;;;;1.65;0.40;;;;;16.00;100199.00;;;;5055529;28;20199;-80
2023/01/12 09:13:50;;;;;;;1.08;0.52;;;;;16.10;100213.00;;;;5053403;28;20199;-80
2023/01/12 09:16:19;;;;;;;0.93;0.32;;;;;16.10;100207.00;;;;5047677;28;20200;-78
2023/01/12 09:18:48;;;;;;;2.92;0.57;;;;;16.10;100218.00;;;;5066220;28;20661;-77
2023/01/12 09:21:17;;;;;;;1.48;0.60;;;;;16.10;100215.00;;;;5064762;28;20199;-78
2023/01/12 09:23:48;;;;;;;0.57;0.50;;;;;16.10;100221.00;;;;5055372;28;20206;-78
2023/01/12 09:26:18;;;;;;;2.45;0.30;;;;;16.10;100219.00;;;;5049460;28;20751;-78
2023/01/12 09:28:46;;;;;;;1.42;0.60;;;;;16.10;100230.00;;;;5060499;28;20219;-78
2023/01/12 09:31:15;;;;;;;1.17;0.50;;;;;16.10;100225.00;;;;5058933;28;20582;-79
2023/01/12 09:33:44;;;;;;;2.10;0.50;;;;;16.10;100234.00;;;;5052462;28;20196;-78
2023/01/12 09:36:14;;;;;;;1.92;0.40;;;;;16.10;100232.00;;;;5051404;28;20223;-79
2023/01/12 09:38:43;;;;;;;1.83;0.50;;;;;16.20;100246.00;;;;5060374;28;20589;-79
2023/01/12 09:41:15;;;;;;;1.17;0.82;;;;;16.20;100244.00;;;;5047425;28;20227;-78
2023/01/12 09:49:16;;;;;;;2.50;0.52;;;;;16.20;100260.00;;;;5051424;28;20318;-78
2023/01/12 09:51:51;;;;;;;1.35;0.30;;;;;16.20;100268.00;;;;5052608;28;20427;-78
2023/01/12 09:54:19;;;;;;;1.63;0.45;;;;;16.20;100271.00;;;;5054915;28;20806;-78
2023/01/12 09:56:54;;;;;;;1.00;0.40;;;;;16.20;100263.00;;;;5053158;28;20693;-78
2023/01/12 09:59:42;;;;;;;2.17;0.60;;;;;16.10;100273.00;;;;5067004;28;20205;-79
2023/01/12 10:02:11;;;;;;;0.98;0.40;;;;;16.20;100266.00;;;;5054584;28;20206;-78
2023/01/12 10:04:39;;;;;;;1.77;0.35;;;;;16.30;100268.00;;;;5050968;28;20200;-79
2023/01/12 10:07:13;;;;;;;1.98;0.68;;;;;16.30;100260.00;;;;5054811;28;20226;-78
2023/01/12 10:09:41;;;;;;;2.22;0.75;;;;;16.30;100273.00;;;;5058340;28;20341;-77
2023/01/12 10:12:19;;;;;;;2.78;0.57;;;;;16.20;100286.00;;;;5054915;28;20202;-78
2023/01/12 10:15:13;;;;;;;3.58;0.50;;;;;16.20;100275.00;;;;5054930;28;20218;-78
2023/01/12 10:17:49;;;;;;;4.60;0.90;;;;;16.30;100288.00;;;;5059958;28;20218;-77
2023/01/12 10:20:23;;;;;;;4.15;0.70;;;;;16.30;100282.00;;;;5052452;28;20253;-78
2023/01/12 10:22:55;;;;;;;1.60;0.65;;;;;16.30;100297.00;;;;5054654;28;20290;-78
2023/01/12 10:25:34;;;;;;;2.92;0.73;;;;;16.40;100288.00;;;;5064937;28;20203;-78
2023/01/12 10:28:08;;;;;;;3.67;0.80;;;;;16.40;100286.00;;;;5055649;28;20227;-77
2023/01/12 10:30:37;;;;;;;2.70;0.77;;;;;16.40;100292.00;;;;5057822;28;20993;-77
2023/01/12 10:33:12;;;;;;;2.25;0.63;;;;;16.40;100290.00;;;;5060898;28;20203;-78
2023/01/12 10:35:52;;;;;;;3.03;0.75;;;;;16.40;100288.00;;;;5065843;28;20211;-78
2023/01/12 10:38:24;;;;;;;1.15;0.50;;;;;16.50;100283.00;;;;5063691;28;20438;-78
2023/01/12 10:41:12;;;;;;;2.72;0.95;;;;;16.40;100286.00;;;;5051075;28;20556;-79
2023/01/12 10:43:40;;;;;;;1.35;0.38;;;;;16.50;100290.00;;;;5055798;28;20296;-79
2023/01/12 10:46:13;;;;;;;2.13;0.73;;;;;16.50;100292.00;;;;5059019;28;20231;-79
2023/01/12 10:48:42;;;;;;;1.40;0.50;;;;;16.60;100290.00;;;;5061472;28;20199;-79
2023/01/12 10:51:21;;;;;;;3.05;0.50;;;;;16.50;100288.00;;;;5057905;28;20215;-79
2023/01/12 10:53:53;;;;;;;1.45;0.30;;;;;16.60;100288.00;;;;5065074;28;20608;-79
2023/01/12 10:56:26;;;;;;;0.88;0.30;;;;;16.60;100288.00;;;;5051615;28;20204;-79
2023/01/12 10:58:57;;;;;;;0.40;0.20;;;;;16.60;100289.00;;;;5056721;28;20202;-78
2023/01/12 11:01:25;;;;;;;1.08;0.20;;;;;16.60;100290.00;;;;5064040;28;20199;-78
2023/01/12 11:04:03;;;;;;;0.65;0.20;;;;;16.60;100288.00;;;;5054404;28;20669;-77
2023/01/12 11:06:31;;;;;;;0.55;0.10;;;;;16.60;100298.00;;;;5049088;28;20210;-78
2023/01/12 11:09:18;;;;;;;0.17;0.17;;;;;16.50;100298.00;;;;5052842;28;20563;-78
2023/01/12 11:11:45;;;;;;;0.13;0.10;;;;;16.60;100289.00;;;;5050742;28;20191;-79
2023/01/12 11:14:25;;;;;;;0.05;0.03;;;;;16.50;100291.00;;;;5064345;28;20188;-79
2023/01/12 11:16:53;;;;;;;0.20;0.00;;;;;16.60;100282.00;;;;5050656;28;20200;-78
2023/01/12 11:19:26;;;;;;;0.50;0.10;;;;;16.60;100288.00;;;;5056739;28;20215;-78
2023/01/12 11:21:59;;;;;;;0.45;0.20;;;;;16.60;100281.00;;;;5054773;28;20199;-77
2023/01/12 11:24:37;;;;;;;0.32;0.10;;;;;16.50;100279.00;;;;5055733;28;20199;-77
2023/01/12 11:27:16;;;;;;;0.75;0.20;;;;;16.50;100275.00;;;;5057107;28;20720;-79
2023/01/12 11:29:52;;;;;;;0.82;0.20;;;;;16.60;100271.00;;;;5056129;28;20225;-78
2023/01/12 11:32:28;;;;;;;0.13;0.10;;;;;16.60;100274.00;;;;5057501;28;20194;-79
2023/01/12 11:34:58;;;;;;;0.32;0.08;;;;;16.60;100273.00;;;;5057763;28;20203;-79
2023/01/12 11:37:26;;;;;;;0.10;0.10;;;;;16.60;100272.00;;;;5061460;28;20634;-77
2023/01/12 11:40:03;;;;;;;0.30;0.10;;;;;16.60;100269.00;;;;5058886;28;20195;-79
2023/01/12 11:45:22;;;;;;;0.70;0.30;;;;;16.60;100271.00;;;;5047556;28;20258;-79
2023/01/12 11:47:54;;;;;;;0.13;0.10;;;;;16.60;100270.00;;;;5058183;28;20199;-78
2023/01/12 11:50:27;;;;;;;0.47;0.10;;;;;16.60;100268.00;;;;5050531;28;20928;-78
2023/01/12 11:52:56;;;;;;;0.17;0.10;;;;;16.60;100271.00;;;;5048308;28;20198;-79
2023/01/12 11:55:46;;;;;;;0.20;0.10;;;;;16.50;100249.00;;;;5047965;28;20204;-79
2023/01/12 11:58:22;;;;;;;0.45;0.15;;;;;16.60;100257.00;;;;5059192;28;20195;-79
2023/01/12 12:01:05;;;;;;;1.77;0.10;;;;;16.50;100247.00;;;;5049120;28;20196;-79
2023/01/12 12:04:00;;;;;;;0.15;0.10;;;;;16.50;100254.00;;;;5053140;28;20203;-78
2023/01/12 12:06:55;;;;;;;0.08;0.00;;;;;16.50;100258.00;;;;5053232;28;20237;-80
2023/01/12 12:09:39;;;;;;;0.00;0.00;;;;;16.50;100248.00;;;;5050280;28;20211;-78
2023/01/12 12:12:18;;;;;;;0.47;0.10;;;;;16.60;100243.00;;;;5052041;28;20268;-78
2023/01/12 12:15:03;;;;;;;0.20;0.10;;;;;16.60;100259.00;;;;5056685;28;20199;-78
2023/01/12 12:17:41;;;;;;;0.20;0.10;;;;;16.60;100240.00;;;;5050356;28;20206;-79
2023/01/12 12:20:17;;;;;;;0.45;0.00;;;;;16.60;100246.00;;;;5055093;28;20206;-79
2023/01/12 12:22:59;;;;;;;0.82;0.10;;;;;16.60;100246.00;;;;5052814;28;21201;-78
2023/01/12 12:25:36;;;;;;;0.77;0.25;;;;;16.60;100245.00;;;;5049907;28;20231;-79
2023/01/12 12:28:39;;;;;;;0.93;0.10;;;;;16.60;100241.00;;;;5049112;28;20203;-78
2023/01/12 12:31:36;;;;;;;0.30;0.13;;;;;16.50;100232.00;;;;5047998;28;20319;-78
2023/01/12 12:34:29;;;;;;;0.10;0.00;;;;;16.50;100233.00;;;;5062079;28;20199;-79
2023/01/12 12:37:04;;;;;;;0.17;0.00;;;;;16.60;100233.00;;;;5050513;28;20214;-79
2023/01/12 12:39:45;;;;;;;0.30;0.10;;;;;16.60;100227.00;;;;5055798;28;20264;-77
2023/01/12 12:45:20;;;;;;;0.30;0.10;;;;;16.50;100216.00;;;;5047576;28;20656;-79
2023/01/12 12:48:01;;;;;;;0.32;0.20;;;;;16.50;100225.00;;;;5056363;28;20228;-78
2023/01/12 12:50:31;;;;;;;0.10;0.00;;;;;16.60;100219.00;;;;5047228;28;20219;-78
2023/01/12 12:53:13;;;;;;;0.10;0.05;;;;;16.50;100220.00;;;;5053479;28;20191;-79
2023/01/12 12:55:40;;;;;;;0.20;0.10;;;;;16.60;100212.00;;;;5047561;28;20476;-80
2023/01/12 12:58:28;;;;;;;0.10;0.10;;;;;16.50;100210.00;;;;5049302;28;20195;-79
2023/01/12 13:01:43;;;;;;;0.10;0.10;;;;;16.50;100207.00;;;;5052264;28;20196;-79
2023/01/12 13:04:13;;;;;;;0.10;0.00;;;;;16.60;100205.00;;;;5053916;28;20199;-78
2023/01/12 13:06:44;;;;;;;0.32;0.10;;;;;16.60;100208.00;;;;5061775;28;20191;-80
2023/01/12 13:09:35;;;;;;;0.00;0.00;;;;;16.50;100191.00;;;;5053053;28;20200;-80